createdAt,value
2016-11-01T12:00:06.357Z,31.15
2016-11-01T12:01:17.133Z,30.59
2016-11-01T12:02:28.235Z,30.16
2016-11-01T12:03:39.732Z,30.03
2016-11-01T12:04:50.447Z,29.81
2016-11-01T12:06:02.037Z,29.93
2016-11-01T12:07:13.150Z,30.56
2016-11-01T12:08:24.245Z,31.11
2016-11-01T12:09:35.026Z,30.57
2016-11-01T12:10:46.257Z,30.27
2016-11-01T12:11:57.353Z,30.09
2016-11-01T12:13:08.074Z,29.47
2016-11-01T12:14:19.252Z,29.62
2016-11-01T12:15:29.933Z,30.08
2016-11-01T12:16:40.620Z,30.91
2016-11-01T12:17:51.894Z,31.4
2016-11-01T12:19:02.963Z,30.69
2016-11-01T12:20:14.183Z,30.47
2016-11-01T12:21:24.923Z,29.81
2016-11-01T12:22:35.718Z,29.38
2016-11-01T12:23:47.257Z,29.4
2016-11-01T12:24:58.047Z,30.24
2016-11-01T12:26:08.759Z,31.15
2016-11-01T12:27:19.934Z,31.24
2016-11-01T12:28:30.980Z,30.94
2016-11-01T12:29:41.852Z,31.65
2016-11-01T12:30:52.530Z,32.44
2016-11-01T12:32:03.782Z,32.98
2016-11-01T12:33:14.989Z,32.92
2016-11-01T12:34:26.827Z,33.13
2016-11-01T12:35:37.742Z,32.79
2016-11-01T12:36:48.873Z,32.62
2016-11-01T12:37:59.996Z,32.24
2016-11-01T12:39:11.502Z,32.06
2016-11-01T12:40:22.188Z,31.4
2016-11-01T12:41:33.438Z,30.34
2016-11-01T12:42:44.599Z,29.52
2016-11-01T12:43:55.728Z,29.03
2016-11-01T12:45:06.486Z,29.08
2016-11-01T12:46:17.233Z,29.43
2016-11-01T12:47:28.801Z,30.4
2016-11-01T12:48:39.893Z,31.17
2016-11-01T12:49:50.994Z,31.92
2016-11-01T12:51:02.086Z,31.7
2016-11-01T12:52:13.229Z,32.05
2016-11-01T12:53:24.591Z,32.22
2016-11-01T12:54:35.315Z,32.92
2016-11-01T12:55:46.045Z,32.74
2016-11-01T12:56:56.745Z,32.7
2016-11-01T12:58:07.433Z,32.02
2016-11-01T12:59:18.549Z,31.02
2016-11-01T13:00:29.193Z,30.26
2016-11-01T13:01:40.720Z,29.92
2016-11-01T13:02:51.857Z,30.18
2016-11-01T13:04:03.438Z,30.54
2016-11-01T13:05:14.319Z,30.68
2016-11-01T13:06:25.412Z,30.99
2016-11-01T13:07:36.653Z,31.05
2016-11-01T13:08:47.375Z,30.93
2016-11-01T13:09:58.633Z,30.53
2016-11-01T13:11:09.673Z,29.92
2016-11-01T13:12:20.857Z,29.93
2016-11-01T13:13:31.947Z,30.02
2016-11-01T13:14:42.688Z,30.08
2016-11-01T13:15:53.385Z,29.9
2016-11-01T13:17:04.918Z,29.6
2016-11-01T13:18:15.629Z,29.49
2016-11-01T13:19:26.299Z,29.56
2016-11-01T13:20:36.974Z,29.86
2016-11-01T13:21:48.089Z,29.72
2016-11-01T13:22:59.309Z,29.37
2016-11-01T13:24:10.516Z,29.47
2016-11-01T13:25:22.055Z,29.4
2016-11-01T13:26:32.800Z,29.49
2016-11-01T13:27:43.512Z,30.15
2016-11-01T13:28:54.632Z,30.68
2016-11-01T13:30:06.072Z,30.96
2016-11-01T13:31:17.206Z,31.39
2016-11-01T13:32:27.979Z,31.61
2016-11-01T13:33:53.747Z,31.45
2016-11-01T13:35:04.825Z,31.53
2016-11-01T13:36:15.568Z,31.64
2016-11-01T13:37:26.701Z,31.85
2016-11-01T13:38:37.402Z,31.67
2016-11-01T13:39:48.553Z,31.02
2016-11-01T13:40:59.262Z,30.62
2016-11-01T13:42:10.021Z,30.34
2016-11-01T13:43:21.078Z,30.18
2016-11-01T13:44:31.884Z,29.75
2016-11-01T13:45:42.791Z,29.59
2016-11-01T13:46:53.527Z,30.02
2016-11-01T13:48:04.705Z,30.65
2016-11-01T13:49:15.461Z,31.26
2016-11-01T13:50:27.139Z,31.61
2016-11-01T13:51:37.803Z,31.64
2016-11-01T13:52:49.116Z,31.43
2016-11-01T13:54:00.210Z,31.23
2016-11-01T13:55:11.701Z,30.98
2016-11-01T13:56:22.433Z,30.57
2016-11-01T13:57:33.293Z,30.96
2016-11-01T13:58:44.420Z,31.24
2016-11-01T13:59:55.901Z,31.26
2016-11-01T14:01:07.183Z,31.17
2016-11-01T14:02:19.206Z,31.61
2016-11-01T14:03:29.934Z,31.88
2016-11-01T14:04:41.108Z,32.03
2016-11-01T14:05:52.187Z,32.33
2016-11-01T14:07:03.632Z,32.92
2016-11-01T14:08:15.157Z,32.8
2016-11-01T14:09:26.813Z,32.76
2016-11-01T14:10:37.952Z,32.17
2016-11-01T14:11:49.354Z,32.29
2016-11-01T14:13:00.063Z,31.6
2016-11-01T14:14:11.296Z,31.43
2016-11-01T14:15:22.104Z,31.38
2016-11-01T14:16:33.976Z,31.62
2016-11-01T14:17:45.104Z,31.6
2016-11-01T14:18:55.863Z,31.6
2016-11-01T14:20:07.100Z,31.99
2016-11-01T14:21:19.075Z,31.49
2016-11-01T14:22:29.761Z,31.39
2016-11-01T14:23:40.861Z,31.24
2016-11-01T14:24:51.563Z,31.4
2016-11-01T14:26:02.606Z,31.75
2016-11-01T14:27:13.957Z,32.18
2016-11-01T14:28:24.694Z,32.24
2016-11-01T14:29:35.421Z,32
2016-11-01T14:30:46.153Z,32.24
2016-11-01T14:31:56.890Z,32.22
2016-11-01T14:33:07.984Z,32.64
2016-11-01T14:34:18.712Z,32.02
2016-11-01T14:35:30.231Z,31.75
2016-11-01T14:36:41.324Z,31.8
2016-11-01T14:37:51.971Z,32.06
2016-11-01T14:39:03.099Z,32.59
2016-11-01T14:40:14.933Z,32.4
2016-11-01T14:41:25.633Z,31.87
2016-11-01T14:42:37.124Z,31.64
2016-11-01T14:43:48.663Z,31.79
2016-11-01T14:44:59.501Z,31.42
2016-11-01T14:46:10.261Z,31.33
2016-11-01T14:47:21.060Z,31.02
2016-11-01T14:48:32.237Z,31.13
2016-11-01T14:49:43.031Z,31.39
2016-11-01T14:50:53.862Z,31.27
2016-11-01T14:52:19.113Z,31.01
2016-11-01T14:53:30.236Z,31.01
2016-11-01T14:54:40.956Z,31.12
2016-11-01T14:55:52.769Z,31.21
2016-11-01T14:57:03.499Z,31.04
2016-11-01T14:58:14.166Z,30.78
2016-11-01T14:59:24.852Z,30.72
2016-11-01T15:00:35.981Z,30.78
2016-11-01T15:01:47.084Z,30.94
2016-11-01T15:02:59.128Z,31.13
2016-11-01T15:04:09.831Z,31.42
2016-11-01T15:05:20.574Z,31.2
2016-11-01T15:06:31.284Z,30.91
2016-11-01T15:07:42.103Z,30.89
2016-11-01T15:08:52.775Z,30.59
2016-11-01T15:10:03.575Z,30.36
2016-11-01T15:11:14.674Z,30.3
2016-11-01T15:12:25.376Z,30.38
2016-11-01T15:13:36.533Z,29.93
2016-11-01T15:14:47.273Z,30.5
2016-11-01T15:15:58.419Z,30.94
2016-11-01T15:17:09.127Z,31.58
2016-11-01T15:18:19.896Z,32.1
2016-11-01T15:19:31.012Z,31.88
2016-11-01T15:20:41.750Z,32
2016-11-01T15:21:52.489Z,32.25
2016-11-01T15:23:03.958Z,32.48
2016-11-01T15:24:14.685Z,32.7
2016-11-01T15:25:25.480Z,32.84
2016-11-01T15:26:36.215Z,32.33
2016-11-01T15:27:47.018Z,31.88
2016-11-01T15:28:57.763Z,31.26
2016-11-01T15:30:08.837Z,31.55
2016-11-01T15:31:19.875Z,31.75
2016-11-01T15:32:31.075Z,31.43
2016-11-01T15:33:42.198Z,31.55
2016-11-01T15:34:53.288Z,31.2
2016-11-01T15:36:03.923Z,31.28
2016-11-01T15:37:14.765Z,31.26
2016-11-01T15:38:26.693Z,31.05
2016-11-01T15:39:38.220Z,30.96
2016-11-01T15:40:49.873Z,31.26
2016-11-01T15:42:00.522Z,31.43
2016-11-01T15:43:12.737Z,31.31
2016-11-01T15:44:24.048Z,31.02
2016-11-01T15:45:34.736Z,31.58
2016-11-01T15:46:45.463Z,32.03
2016-11-01T15:47:56.570Z,31.98
2016-11-01T15:49:08.772Z,32.11
2016-11-01T15:50:19.519Z,32.1
2016-11-01T15:51:30.264Z,32.2
2016-11-01T15:52:41.851Z,32.59
2016-11-01T15:53:52.995Z,32.88
2016-11-01T15:55:04.236Z,33.08
2016-11-01T15:56:14.952Z,33.14
2016-11-01T15:57:26.081Z,33.57
2016-11-01T15:58:36.785Z,33.29
2016-11-01T15:59:47.475Z,33.04
2016-11-01T16:00:58.257Z,32.21
2016-11-01T16:02:08.970Z,31.93
2016-11-01T16:03:20.919Z,31.24
2016-11-01T16:04:32.004Z,31.24
2016-11-01T16:05:43.142Z,31.77
2016-11-01T16:06:53.864Z,32.37
2016-11-01T16:08:05.009Z,32.91
2016-11-01T16:09:16.141Z,32.61
2016-11-01T16:10:26.911Z,32.18
2016-11-01T16:11:38.035Z,32.3
2016-11-01T16:12:50.220Z,32.17
2016-11-01T16:14:00.934Z,32.49
2016-11-01T16:15:11.993Z,32.89
2016-11-01T16:16:23.092Z,33.03
2016-11-01T16:17:33.813Z,33.36
2016-11-01T16:18:44.861Z,33.78
2016-11-01T16:19:56.116Z,34.04
2016-11-01T16:21:06.813Z,33.58
2016-11-01T16:22:17.908Z,33.7
2016-11-01T16:23:29.408Z,33.67
2016-11-01T16:24:40.122Z,33.76
2016-11-01T16:25:50.841Z,33.89
2016-11-01T16:27:01.572Z,33.27
2016-11-01T16:28:12.292Z,32.49
2016-11-01T16:29:24.514Z,31.85
2016-11-01T16:30:35.355Z,31.42
2016-11-01T16:31:46.484Z,31.76
2016-11-01T16:32:57.595Z,31.88
2016-11-01T16:34:08.407Z,32.33
2016-11-01T16:35:19.124Z,32.92
2016-11-01T16:36:30.388Z,33.3
2016-11-01T16:37:41.544Z,33.48
2016-11-01T16:38:52.261Z,33.42
2016-11-01T16:40:03.091Z,33.83
2016-11-01T16:41:13.809Z,34.2
2016-11-01T16:42:25.000Z,34.34
2016-11-01T16:44:52.909Z,34.64
2016-11-01T16:46:03.664Z,34.73
2016-11-01T16:47:14.795Z,34.38
2016-11-01T16:48:25.599Z,33.89
2016-11-01T16:49:36.286Z,34.02
2016-11-01T16:50:47.774Z,33.89
2016-11-01T16:51:58.890Z,33.89
2016-11-01T16:53:10.020Z,34.02
2016-11-01T16:54:21.297Z,34.29
2016-11-01T16:55:32.505Z,33.98
2016-11-01T16:56:43.276Z,34.04
2016-11-01T16:57:54.749Z,34.26
2016-11-01T16:59:05.864Z,34.35
2016-11-01T17:00:16.939Z,34.46
2016-11-01T17:01:28.517Z,34.29
2016-11-01T17:02:39.248Z,33.8
2016-11-01T17:03:50.355Z,33.83
2016-11-01T17:05:01.495Z,34.22
2016-11-01T17:06:12.344Z,34.44
2016-11-01T17:07:23.064Z,34.7
2016-11-01T17:08:34.196Z,34.94
2016-11-01T17:09:45.338Z,34.24
2016-11-01T17:10:56.054Z,34.19
2016-11-01T17:12:06.787Z,34.38
2016-11-01T17:13:17.494Z,34.36
2016-11-01T17:14:28.978Z,33.61
2016-11-01T17:15:40.082Z,32.73
2016-11-01T17:16:51.229Z,32.35
2016-11-01T17:18:02.091Z,31.65
2016-11-01T17:19:14.002Z,31.49
2016-11-01T17:20:24.714Z,31.28
2016-11-01T17:21:35.846Z,31.27
2016-11-01T17:22:47.005Z,31.18
2016-11-01T17:23:58.189Z,31.5
2016-11-01T17:25:08.934Z,31.95
2016-11-01T17:26:20.103Z,32.57
2016-11-01T17:27:31.254Z,32.85
2016-11-01T17:28:41.984Z,33.15
2016-11-01T17:29:53.651Z,32.98
2016-11-01T17:31:04.391Z,32.92
2016-11-01T17:32:15.122Z,32.88
2016-11-01T17:33:26.283Z,33.07
2016-11-01T17:34:37.035Z,32.61
2016-11-01T17:35:48.210Z,32.47
2016-11-01T17:36:59.348Z,33.04
2016-11-01T17:38:10.489Z,33.07
2016-11-01T17:39:21.615Z,33.42
2016-11-01T17:40:32.766Z,33.45
2016-11-01T17:41:44.005Z,33.31
2016-11-01T17:42:54.725Z,33.36
2016-11-01T17:44:05.413Z,33.53
2016-11-01T17:45:16.483Z,33.97
2016-11-01T17:46:27.661Z,33.55
2016-11-01T17:47:39.318Z,33.13
2016-11-01T17:48:50.130Z,32.93
2016-11-01T17:50:00.928Z,33.07
2016-11-01T17:51:11.654Z,33.1
2016-11-01T17:52:22.385Z,32.35
2016-11-01T17:53:33.614Z,32.2
2016-11-01T17:54:45.230Z,32.42
2016-11-01T17:55:56.341Z,32.57
2016-11-01T17:57:07.873Z,33.04
2016-11-01T17:58:18.577Z,33.07
2016-11-01T17:59:29.691Z,32.86
2016-11-01T18:00:40.481Z,32.51
2016-11-01T18:01:51.205Z,32.24
2016-11-01T18:03:01.968Z,32.55
2016-11-01T18:04:12.783Z,32.66
2016-11-01T18:05:23.652Z,33.15
2016-11-01T18:06:34.386Z,33.08
2016-11-01T18:07:45.109Z,32.93
2016-11-01T18:08:56.565Z,32.96
2016-11-01T18:10:07.393Z,33.22
2016-11-01T18:11:18.596Z,33.23
2016-11-01T18:12:29.676Z,32.86
2016-11-01T18:13:40.392Z,31.88
2016-11-01T18:14:51.071Z,31.13
2016-11-01T18:16:02.581Z,30.83
2016-11-01T18:17:13.253Z,30.91
2016-11-01T18:18:24.509Z,31.24
2016-11-01T18:19:35.243Z,31.58
2016-11-01T18:20:45.971Z,31.75
2016-11-01T18:21:58.262Z,32.05
2016-11-01T18:23:09.208Z,32.29
2016-11-01T18:24:19.920Z,32.43
2016-11-01T18:25:30.990Z,32.2
2016-11-01T18:26:41.713Z,31.91
2016-11-01T18:27:52.410Z,31.42
2016-11-01T18:29:03.933Z,31.5
2016-11-01T18:30:14.669Z,31.43
2016-11-01T18:31:25.421Z,31.31
2016-11-01T18:32:36.909Z,31.18
2016-11-01T18:33:47.737Z,31.12
2016-11-01T18:34:58.495Z,30.9
2016-11-01T18:36:09.190Z,30.54
2016-11-01T18:37:20.353Z,30.49
2016-11-01T18:38:31.059Z,30.36
2016-11-01T18:39:42.199Z,30.14
2016-11-01T18:40:53.066Z,30
2016-11-01T18:42:04.277Z,30.14
2016-11-01T18:43:15.012Z,30.31
2016-11-01T18:44:25.749Z,29.9
2016-11-01T18:45:36.944Z,29.78
2016-11-01T18:46:47.613Z,29.75
2016-11-01T18:47:58.764Z,29.75
2016-11-01T18:49:10.022Z,29.96
2016-11-01T18:50:21.512Z,29.92
2016-11-01T18:51:32.222Z,29.89
2016-11-01T18:52:43.288Z,29.71
2016-11-01T18:53:54.387Z,29.63
2016-11-01T18:55:05.461Z,29.44
2016-11-01T18:56:16.930Z,29.35
2016-11-01T18:57:28.032Z,29.35
2016-11-01T18:58:39.367Z,29.23
2016-11-01T18:59:50.465Z,29.2
2016-11-01T19:01:01.239Z,29.26
2016-11-01T19:02:11.956Z,29.33
2016-11-01T19:03:23.016Z,29.38
2016-11-01T19:04:34.556Z,29.38
2016-11-01T19:05:45.729Z,29.25
2016-11-01T19:06:56.798Z,29.29
2016-11-01T19:08:07.609Z,29.45
2016-11-01T19:09:18.335Z,29.55
2016-11-01T19:10:29.222Z,29.45
2016-11-01T19:11:39.945Z,29.47
2016-11-01T19:12:51.845Z,29.55
2016-11-01T19:14:02.954Z,29.49
2016-11-01T19:15:14.457Z,29.45
2016-11-01T19:16:26.335Z,29.37
2016-11-01T19:17:37.424Z,29.37
2016-11-01T19:18:48.554Z,29.47
2016-11-01T19:19:59.675Z,29.53
2016-11-01T19:21:10.474Z,29.57
2016-11-01T19:22:21.244Z,29.53
2016-11-01T19:23:31.982Z,29.6
2016-11-01T19:24:43.081Z,29.65
2016-11-01T19:25:53.878Z,29.53
2016-11-01T19:27:04.990Z,29.45
2016-11-01T19:28:15.840Z,29.49
2016-11-01T19:29:26.901Z,29.52
2016-11-01T19:30:38.507Z,29.52
2016-11-01T19:31:50.316Z,29.55
2016-11-01T19:33:01.793Z,29.65
2016-11-01T19:34:13.391Z,29.59
2016-11-01T19:35:24.127Z,29.68
2016-11-01T19:36:35.396Z,29.6
2016-11-01T19:37:46.559Z,29.45
2016-11-01T19:38:57.830Z,29.41
2016-11-01T19:40:08.978Z,29.4
2016-11-01T19:41:20.256Z,29.28
2016-11-01T19:42:31.515Z,29.25
2016-11-01T19:43:42.228Z,29.29
2016-11-01T19:44:54.250Z,29.34
2016-11-01T19:46:05.827Z,29.28
2016-11-01T19:47:17.565Z,29.29
2016-11-01T19:48:28.794Z,29.26
2016-11-01T19:49:40.253Z,29.34
2016-11-01T19:50:51.363Z,29.56
2016-11-01T19:52:02.194Z,29.45
2016-11-01T19:53:13.504Z,29.33
2016-11-01T19:54:24.809Z,29.03
2016-11-01T19:55:35.523Z,28.91
2016-11-01T19:56:46.641Z,28.84
2016-11-01T19:57:58.487Z,28.72
2016-11-01T19:59:09.193Z,28.6
2016-11-01T20:00:20.347Z,28.5
2016-11-01T20:01:32.466Z,28.38
2016-11-01T20:02:43.338Z,28.41
2016-11-01T20:03:54.490Z,28.33
2016-11-01T20:05:05.811Z,28.35
2016-11-01T20:06:17.271Z,28.32
2016-11-01T20:07:28.348Z,28.32
2016-11-01T20:08:39.831Z,28.31
2016-11-01T20:09:50.560Z,28.44
2016-11-01T20:11:01.456Z,28.25
2016-11-01T20:12:12.701Z,28.25
2016-11-01T20:13:24.551Z,28.33
2016-11-01T20:14:35.310Z,28.26
2016-11-01T20:15:46.253Z,28.17
2016-11-01T20:16:56.975Z,28.21
2016-11-01T20:18:08.134Z,28.16
2016-11-01T20:19:19.144Z,28.11
2016-11-01T20:20:29.809Z,27.98
2016-11-01T20:21:41.650Z,28.01
2016-11-01T20:22:52.843Z,27.98
2016-11-01T20:24:03.784Z,27.85
2016-11-01T20:25:14.892Z,27.86
2016-11-01T20:26:26.375Z,27.82
2016-11-01T20:27:37.582Z,27.76
2016-11-01T20:28:48.484Z,27.73
2016-11-01T20:29:59.727Z,27.77
2016-11-01T20:31:11.441Z,27.69
2016-11-01T20:32:22.522Z,27.71
2016-11-01T20:33:33.208Z,27.57
2016-11-01T20:34:44.313Z,27.51
2016-11-01T20:35:55.821Z,27.54
2016-11-01T20:37:06.950Z,27.51
2016-11-01T20:38:17.908Z,27.57
2016-11-01T20:39:29.093Z,27.51
2016-11-01T20:40:41.295Z,27.57
2016-11-01T20:41:52.172Z,27.43
2016-11-01T20:43:04.065Z,27.41
2016-11-01T20:44:15.189Z,27.51
2016-11-01T20:45:26.051Z,27.47
2016-11-01T20:46:36.841Z,27.36
2016-11-01T20:47:48.192Z,27.35
2016-11-01T20:48:59.294Z,27.39
2016-11-01T20:50:10.490Z,27.31
2016-11-01T20:51:21.393Z,27.26
2016-11-01T20:52:32.077Z,27.31
2016-11-01T20:53:43.157Z,27.26
2016-11-01T20:54:54.345Z,27.29
2016-11-01T20:56:05.468Z,27.21
2016-11-01T20:57:16.911Z,27.23
2016-11-01T20:58:27.662Z,27.14
2016-11-01T20:59:39.314Z,27.2
2016-11-01T21:00:50.300Z,27.23
2016-11-01T21:02:01.412Z,27.17
2016-11-01T21:03:12.190Z,27.14
2016-11-01T21:04:22.870Z,27.05
2016-11-01T21:05:34.020Z,27.13
2016-11-01T21:06:45.073Z,27.09
2016-11-01T21:07:56.002Z,27.13
2016-11-01T21:09:07.123Z,27.1
2016-11-01T21:10:18.520Z,27.06
2016-11-01T21:11:29.615Z,27.01
2016-11-01T21:12:40.371Z,27.06
2016-11-01T21:13:51.143Z,26.95
2016-11-01T21:15:02.345Z,26.96
2016-11-01T21:16:13.091Z,26.84
2016-11-01T21:17:24.660Z,26.83
2016-11-01T21:18:35.550Z,26.73
2016-11-01T21:19:46.367Z,26.65
2016-11-01T21:20:57.736Z,26.69
2016-11-01T21:22:08.833Z,26.67
2016-11-01T21:23:19.795Z,26.73
2016-11-01T21:24:32.028Z,26.68
2016-11-01T21:25:42.845Z,26.74
2016-11-01T21:26:53.988Z,26.67
2016-11-01T21:28:05.571Z,26.65
2016-11-01T21:29:17.601Z,26.72
2016-11-01T21:30:28.667Z,26.65
2016-11-01T21:31:40.187Z,26.55
2016-11-01T21:32:51.291Z,26.59
2016-11-01T21:34:02.466Z,26.44
2016-11-01T21:35:13.285Z,26.46
2016-11-01T21:36:25.179Z,26.32
2016-11-01T21:37:36.256Z,26.32
2016-11-01T21:38:47.072Z,26.27
2016-11-01T21:39:57.765Z,26.27
2016-11-01T21:41:09.252Z,26.28
2016-11-01T21:42:20.371Z,26.24
2016-11-01T21:43:31.132Z,26.18
2016-11-01T21:44:42.101Z,26.25
2016-11-01T21:45:52.801Z,26.25
2016-11-01T21:47:03.761Z,26.25
2016-11-01T21:48:15.566Z,26.22
2016-11-01T21:49:27.358Z,26.17
2016-11-01T21:50:39.603Z,26.17
2016-11-01T21:51:50.738Z,26.15
2016-11-01T21:53:02.273Z,26.2
2016-11-01T21:54:12.996Z,26.08
2016-11-01T21:55:24.095Z,26.05
2016-11-01T21:56:35.048Z,26.05
2016-11-01T21:57:45.786Z,26.04
2016-11-01T21:58:56.690Z,26.06
2016-11-01T22:00:07.419Z,26.02
2016-11-01T22:01:18.977Z,26.02
2016-11-01T22:02:29.825Z,26.04
2016-11-01T22:03:41.314Z,26.02
2016-11-01T22:04:52.069Z,26.01
2016-11-01T22:06:02.831Z,26.02
2016-11-01T22:07:13.575Z,26.08
2016-11-01T22:08:24.574Z,26.08
2016-11-01T22:09:36.188Z,26.17
2016-11-01T22:10:46.892Z,26.05
2016-11-01T22:11:58.374Z,26.02
2016-11-01T22:13:09.074Z,25.99
2016-11-01T22:14:20.790Z,25.87
2016-11-01T22:15:32.318Z,25.9
2016-11-01T22:16:43.023Z,25.72
2016-11-01T22:17:53.723Z,25.74
2016-11-01T22:19:04.614Z,25.77
2016-11-01T22:20:16.237Z,25.71
2016-11-01T22:21:27.004Z,25.62
2016-11-01T22:22:39.483Z,25.67
2016-11-01T22:23:50.397Z,25.68
2016-11-01T22:25:01.956Z,25.74
2016-11-01T22:26:13.058Z,25.71
2016-11-01T22:27:24.682Z,25.69
2016-11-01T22:28:35.889Z,25.67
2016-11-01T22:29:47.203Z,25.67
2016-11-01T22:30:57.905Z,25.69
2016-11-01T22:32:08.634Z,25.64
2016-11-01T22:33:19.357Z,25.64
2016-11-01T22:34:30.098Z,25.69
2016-11-01T22:35:41.211Z,25.56
2016-11-01T22:36:52.359Z,25.62
2016-11-01T22:38:03.306Z,25.57
2016-11-01T22:39:14.206Z,25.46
2016-11-01T22:40:25.628Z,25.5
2016-11-01T22:41:36.300Z,25.62
2016-11-01T22:42:47.428Z,25.62
2016-11-01T22:43:58.559Z,25.69
2016-11-01T22:45:10.679Z,25.68
2016-11-01T22:46:21.603Z,25.72
2016-11-01T22:47:32.660Z,25.72
2016-11-01T22:48:43.417Z,25.67
2016-11-01T22:49:54.651Z,25.59
2016-11-01T22:51:05.405Z,25.59
2016-11-01T22:52:16.766Z,25.68
2016-11-01T22:53:28.035Z,25.74
2016-11-01T22:54:40.135Z,25.74
2016-11-01T22:55:51.778Z,25.74
2016-11-01T22:57:02.868Z,25.72
2016-11-01T22:58:13.744Z,25.74
2016-11-01T22:59:24.879Z,25.65
2016-11-01T23:00:35.935Z,25.64
2016-11-01T23:01:47.038Z,25.65
2016-11-01T23:02:59.323Z,25.54
2016-11-01T23:04:10.428Z,25.5
2016-11-01T23:05:21.559Z,25.47
2016-11-01T23:06:33.044Z,25.44
2016-11-01T23:07:44.329Z,25.59
2016-11-01T23:08:55.706Z,25.54
2016-11-01T23:10:06.448Z,25.47
2016-11-01T23:11:18.120Z,25.5
2016-11-01T23:12:29.617Z,25.52
2016-11-01T23:13:40.826Z,25.62
2016-11-01T23:14:51.567Z,25.49
2016-11-01T23:16:03.095Z,25.5
2016-11-01T23:17:14.276Z,25.57
2016-11-01T23:18:25.309Z,25.47
2016-11-01T23:19:36.542Z,25.62
2016-11-01T23:20:47.260Z,25.5
2016-11-01T23:21:58.380Z,25.52
2016-11-01T23:23:09.075Z,25.49
2016-11-01T23:24:20.520Z,25.42
2016-11-01T23:25:32.007Z,25.43
2016-11-01T23:26:43.453Z,25.32
2016-11-01T23:27:54.584Z,25.27
2016-11-01T23:29:05.266Z,25.38
2016-11-01T23:30:16.310Z,25.34
2016-11-01T23:31:27.923Z,25.44
2016-11-01T23:32:39.009Z,25.27
2016-11-01T23:33:49.730Z,25.35
2016-11-01T23:35:00.568Z,25.31
2016-11-01T23:36:11.244Z,25.32
2016-11-01T23:37:22.561Z,25.31
2016-11-01T23:38:33.208Z,25.16
2016-11-01T23:39:44.739Z,25.24
2016-11-01T23:40:55.492Z,25.19
2016-11-01T23:42:06.163Z,25.2
2016-11-01T23:43:17.267Z,25.19
2016-11-01T23:44:28.789Z,25.25
2016-11-01T23:45:40.006Z,25.19
2016-11-01T23:46:51.467Z,25.27
2016-11-01T23:48:02.224Z,25.3
2016-11-01T23:49:13.395Z,25.16
2016-11-01T23:50:24.530Z,25.09
2016-11-01T23:51:35.672Z,25.12
2016-11-01T23:52:46.419Z,25.02
2016-11-01T23:53:57.154Z,24.97
2016-11-01T23:55:08.585Z,24.91
2016-11-01T23:56:19.295Z,24.83
2016-11-01T23:57:30.525Z,24.8
2016-11-01T23:58:41.591Z,24.8
2016-11-01T23:59:52.309Z,24.77
